sensor_id;sensor_type;location;lat;lon;timestamp;temperature;humidity
33139;DHT22;19501;50.948;5.316;2022-12-29T00:01:45;11.20;99.90
33139;DHT22;19501;50.948;5.316;2022-12-29T00:04:12;11.20;99.90
33139;DHT22;19501;50.948;5.316;2022-12-29T00:06:37;11.20;99.90
33139;DHT22;19501;50.948;5.316;2022-12-29T00:09:03;11.30;99.90
33139;DHT22;19501;50.948;5.316;2022-12-29T00:11:28;11.40;99.90
33139;DHT22;19501;50.948;5.316;2022-12-29T00:13:54;11.50;99.90
33139;DHT22;19501;50.948;5.316;2022-12-29T00:16:42;11.50;99.90
33139;DHT22;19501;50.948;5.316;2022-12-29T00:19:09;11.60;99.90
33139;DHT22;19501;50.948;5.316;2022-12-29T00:21:54;11.70;99.90
33139;DHT22;19501;50.948;5.316;2022-12-29T00:24:38;11.80;99.90
33139;DHT22;19501;50.948;5.316;2022-12-29T00:27:19;11.90;99.90
33139;DHT22;19501;50.948;5.316;2022-12-29T00:30:07;11.90;99.90
33139;DHT22;19501;50.948;5.316;2022-12-29T00:32:52;12.00;99.90
33139;DHT22;19501;50.948;5.316;2022-12-29T00:35:38;12.00;99.90
33139;DHT22;19501;50.948;5.316;2022-12-29T00:38:05;12.10;99.90
33139;DHT22;19501;50.948;5.316;2022-12-29T00:40:49;12.10;99.90
33139;DHT22;19501;50.948;5.316;2022-12-29T00:43:34;12.10;99.90
33139;DHT22;19501;50.948;5.316;2022-12-29T00:46:18;12.10;99.90
33139;DHT22;19501;50.948;5.316;2022-12-29T00:48:44;12.20;99.90
33139;DHT22;19501;50.948;5.316;2022-12-29T00:51:28;12.10;99.90
33139;DHT22;19501;50.948;5.316;2022-12-29T00:53:54;12.10;99.90
33139;DHT22;19501;50.948;5.316;2022-12-29T00:56:19;12.10;99.90
33139;DHT22;19501;50.948;5.316;2022-12-29T00:58:45;12.10;99.90
33139;DHT22;19501;50.948;5.316;2022-12-29T01:01:11;12.10;99.90
33139;DHT22;19501;50.948;5.316;2022-12-29T01:03:37;12.10;99.90
33139;DHT22;19501;50.948;5.316;2022-12-29T01:06:04;12.10;99.90
33139;DHT22;19501;50.948;5.316;2022-12-29T01:08:29;12.10;99.90
33139;DHT22;19501;50.948;5.316;2022-12-29T01:11:02;12.10;99.90
33139;DHT22;19501;50.948;5.316;2022-12-29T01:13:28;12.00;99.90
33139;DHT22;19501;50.948;5.316;2022-12-29T01:15:54;12.00;99.90
33139;DHT22;19501;50.948;5.316;2022-12-29T01:18:20;12.10;99.90
33139;DHT22;19501;50.948;5.316;2022-12-29T01:20:45;12.10;99.90
33139;DHT22;19501;50.948;5.316;2022-12-29T01:23:11;12.10;99.90
33139;DHT22;19501;50.948;5.316;2022-12-29T01:25:37;12.20;99.90
33139;DHT22;19501;50.948;5.316;2022-12-29T01:28:02;12.10;99.90
33139;DHT22;19501;50.948;5.316;2022-12-29T01:30:28;12.20;99.90
33139;DHT22;19501;50.948;5.316;2022-12-29T01:32:54;12.20;99.90
33139;DHT22;19501;50.948;5.316;2022-12-29T01:35:19;12.20;99.90
33139;DHT22;19501;50.948;5.316;2022-12-29T01:37:45;12.10;99.90
33139;DHT22;19501;50.948;5.316;2022-12-29T01:40:11;12.10;99.90
33139;DHT22;19501;50.948;5.316;2022-12-29T01:42:36;12.20;99.90
33139;DHT22;19501;50.948;5.316;2022-12-29T01:45:04;12.20;99.90
33139;DHT22;19501;50.948;5.316;2022-12-29T01:47:35;12.20;99.90
33139;DHT22;19501;50.948;5.316;2022-12-29T01:50:06;12.20;99.90
33139;DHT22;19501;50.948;5.316;2022-12-29T01:52:34;12.30;99.90
33139;DHT22;19501;50.948;5.316;2022-12-29T01:55:01;12.20;99.90
33139;DHT22;19501;50.948;5.316;2022-12-29T01:57:31;12.10;99.90
33139;DHT22;19501;50.948;5.316;2022-12-29T02:00:03;11.90;99.90
33139;DHT22;19501;50.948;5.316;2022-12-29T02:02:29;11.70;99.90
33139;DHT22;19501;50.948;5.316;2022-12-29T02:04:54;11.60;99.90
33139;DHT22;19501;50.948;5.316;2022-12-29T02:07:21;11.60;99.90
33139;DHT22;19501;50.948;5.316;2022-12-29T02:09:49;11.50;99.90
33139;DHT22;19501;50.948;5.316;2022-12-29T02:12:15;11.40;99.90
33139;DHT22;19501;50.948;5.316;2022-12-29T02:14:41;11.30;99.90
33139;DHT22;19501;50.948;5.316;2022-12-29T02:35:54;11.80;99.90
33139;DHT22;19501;50.948;5.316;2022-12-29T02:38:25;11.80;99.90
33139;DHT22;19501;50.948;5.316;2022-12-29T02:40:53;11.70;99.90
33139;DHT22;19501;50.948;5.316;2022-12-29T02:46:31;11.60;99.90
33139;DHT22;19501;50.948;5.316;2022-12-29T02:49:13;11.60;99.90
33139;DHT22;19501;50.948;5.316;2022-12-29T02:54:36;11.50;99.90
33139;DHT22;19501;50.948;5.316;2022-12-29T02:57:15;11.50;99.90
33139;DHT22;19501;50.948;5.316;2022-12-29T02:59:42;11.30;99.90
33139;DHT22;19501;50.948;5.316;2022-12-29T03:02:20;11.30;99.90
33139;DHT22;19501;50.948;5.316;2022-12-29T03:15:20;11.30;99.90
33139;DHT22;19501;50.948;5.316;2022-12-29T03:18:06;11.40;99.90
33139;DHT22;19501;50.948;5.316;2022-12-29T03:20:40;11.40;99.90
33139;DHT22;19501;50.948;5.316;2022-12-29T03:23:09;11.30;99.90
33139;DHT22;19501;50.948;5.316;2022-12-29T03:25:37;11.30;99.90
33139;DHT22;19501;50.948;5.316;2022-12-29T03:28:07;11.30;99.90
33139;DHT22;19501;50.948;5.316;2022-12-29T03:30:34;11.30;99.90
33139;DHT22;19501;50.948;5.316;2022-12-29T03:33:01;11.40;99.90
33139;DHT22;19501;50.948;5.316;2022-12-29T03:35:28;11.50;99.90
33139;DHT22;19501;50.948;5.316;2022-12-29T03:37:55;11.60;99.90
33139;DHT22;19501;50.948;5.316;2022-12-29T03:40:23;11.70;99.90
33139;DHT22;19501;50.948;5.316;2022-12-29T03:42:50;11.80;99.90
33139;DHT22;19501;50.948;5.316;2022-12-29T03:45:16;11.80;99.90
33139;DHT22;19501;50.948;5.316;2022-12-29T03:47:42;11.90;99.90
33139;DHT22;19501;50.948;5.316;2022-12-29T03:50:07;11.90;99.90
33139;DHT22;19501;50.948;5.316;2022-12-29T03:52:34;11.70;99.90
33139;DHT22;19501;50.948;5.316;2022-12-29T03:55:01;11.60;99.90
33139;DHT22;19501;50.948;5.316;2022-12-29T03:57:28;11.50;99.90
33139;DHT22;19501;50.948;5.316;2022-12-29T03:59:53;11.30;99.90
33139;DHT22;19501;50.948;5.316;2022-12-29T04:02:19;11.20;99.90
33139;DHT22;19501;50.948;5.316;2022-12-29T04:04:45;11.20;99.90
33139;DHT22;19501;50.948;5.316;2022-12-29T04:07:11;11.20;99.90
33139;DHT22;19501;50.948;5.316;2022-12-29T04:09:39;11.20;99.90
33139;DHT22;19501;50.948;5.316;2022-12-29T04:12:04;11.30;99.90
33139;DHT22;19501;50.948;5.316;2022-12-29T04:14:30;11.30;99.90
33139;DHT22;19501;50.948;5.316;2022-12-29T04:16:55;11.40;99.90
33139;DHT22;19501;50.948;5.316;2022-12-29T04:19:21;11.30;99.90
33139;DHT22;19501;50.948;5.316;2022-12-29T04:21:47;11.20;99.90
33139;DHT22;19501;50.948;5.316;2022-12-29T04:24:12;11.10;99.90
33139;DHT22;19501;50.948;5.316;2022-12-29T04:26:38;11.00;99.90
33139;DHT22;19501;50.948;5.316;2022-12-29T04:29:04;10.90;99.90
33139;DHT22;19501;50.948;5.316;2022-12-29T04:31:30;10.80;99.90
33139;DHT22;19501;50.948;5.316;2022-12-29T04:33:55;10.80;99.90
33139;DHT22;19501;50.948;5.316;2022-12-29T04:36:27;10.70;99.90
33139;DHT22;19501;50.948;5.316;2022-12-29T04:38:53;10.80;99.90
33139;DHT22;19501;50.948;5.316;2022-12-29T04:41:19;10.80;99.90
33139;DHT22;19501;50.948;5.316;2022-12-29T04:43:44;10.90;99.90
33139;DHT22;19501;50.948;5.316;2022-12-29T04:46:10;10.90;99.90
33139;DHT22;19501;50.948;5.316;2022-12-29T04:48:35;10.90;99.90
33139;DHT22;19501;50.948;5.316;2022-12-29T04:51:01;10.90;99.90
33139;DHT22;19501;50.948;5.316;2022-12-29T04:53:26;10.90;99.90
33139;DHT22;19501;50.948;5.316;2022-12-29T04:55:52;10.90;99.90
33139;DHT22;19501;50.948;5.316;2022-12-29T04:58:19;10.90;99.90
33139;DHT22;19501;50.948;5.316;2022-12-29T05:00:45;10.90;99.90
33139;DHT22;19501;50.948;5.316;2022-12-29T05:03:10;10.90;99.90
33139;DHT22;19501;50.948;5.316;2022-12-29T05:05:37;10.90;99.90
33139;DHT22;19501;50.948;5.316;2022-12-29T05:08:02;10.80;99.90
33139;DHT22;19501;50.948;5.316;2022-12-29T05:10:28;10.90;99.90
33139;DHT22;19501;50.948;5.316;2022-12-29T05:12:54;11.00;99.90
33139;DHT22;19501;50.948;5.316;2022-12-29T05:15:19;11.00;99.90
33139;DHT22;19501;50.948;5.316;2022-12-29T05:17:45;11.00;99.90
33139;DHT22;19501;50.948;5.316;2022-12-29T05:20:10;11.00;99.90
33139;DHT22;19501;50.948;5.316;2022-12-29T05:22:36;11.20;99.90
33139;DHT22;19501;50.948;5.316;2022-12-29T05:25:02;11.20;99.90
33139;DHT22;19501;50.948;5.316;2022-12-29T05:27:27;11.30;99.90
33139;DHT22;19501;50.948;5.316;2022-12-29T05:29:53;11.30;99.90
33139;DHT22;19501;50.948;5.316;2022-12-29T05:32:19;11.40;99.90
33139;DHT22;19501;50.948;5.316;2022-12-29T05:34:45;11.40;99.90
33139;DHT22;19501;50.948;5.316;2022-12-29T05:37:11;11.40;99.90
33139;DHT22;19501;50.948;5.316;2022-12-29T05:39:36;11.50;99.90
33139;DHT22;19501;50.948;5.316;2022-12-29T05:42:02;11.50;99.90
33139;DHT22;19501;50.948;5.316;2022-12-29T05:44:28;11.40;99.90
33139;DHT22;19501;50.948;5.316;2022-12-29T05:46:53;11.50;99.90
33139;DHT22;19501;50.948;5.316;2022-12-29T05:49:19;11.40;99.90
33139;DHT22;19501;50.948;5.316;2022-12-29T05:51:45;11.50;99.90
33139;DHT22;19501;50.948;5.316;2022-12-29T05:54:10;11.40;99.90
33139;DHT22;19501;50.948;5.316;2022-12-29T05:56:36;11.50;99.90
33139;DHT22;19501;50.948;5.316;2022-12-29T05:59:01;11.50;99.90
33139;DHT22;19501;50.948;5.316;2022-12-29T06:01:27;11.50;99.90
33139;DHT22;19501;50.948;5.316;2022-12-29T06:03:53;11.50;99.90
33139;DHT22;19501;50.948;5.316;2022-12-29T06:06:20;11.60;99.90
33139;DHT22;19501;50.948;5.316;2022-12-29T06:08:46;11.50;99.90
33139;DHT22;19501;50.948;5.316;2022-12-29T06:11:12;11.50;99.90
33139;DHT22;19501;50.948;5.316;2022-12-29T06:13:38;11.50;99.90
33139;DHT22;19501;50.948;5.316;2022-12-29T06:16:03;11.50;99.90
33139;DHT22;19501;50.948;5.316;2022-12-29T06:18:29;11.50;99.90
33139;DHT22;19501;50.948;5.316;2022-12-29T06:20:58;11.40;99.90
33139;DHT22;19501;50.948;5.316;2022-12-29T06:23:24;11.40;99.90
33139;DHT22;19501;50.948;5.316;2022-12-29T06:25:50;11.40;99.90
33139;DHT22;19501;50.948;5.316;2022-12-29T06:28:15;11.30;99.90
33139;DHT22;19501;50.948;5.316;2022-12-29T06:30:43;11.30;99.90
33139;DHT22;19501;50.948;5.316;2022-12-29T06:33:09;11.40;99.90
33139;DHT22;19501;50.948;5.316;2022-12-29T06:35:34;11.30;99.90
33139;DHT22;19501;50.948;5.316;2022-12-29T06:38:00;11.40;99.90
33139;DHT22;19501;50.948;5.316;2022-12-29T06:40:25;11.30;99.90
33139;DHT22;19501;50.948;5.316;2022-12-29T06:42:51;11.20;99.90
33139;DHT22;19501;50.948;5.316;2022-12-29T06:45:16;11.20;99.90
33139;DHT22;19501;50.948;5.316;2022-12-29T06:47:42;11.20;99.90
33139;DHT22;19501;50.948;5.316;2022-12-29T06:50:08;11.20;99.90
33139;DHT22;19501;50.948;5.316;2022-12-29T06:52:33;11.20;99.90
33139;DHT22;19501;50.948;5.316;2022-12-29T06:54:59;11.20;99.90
33139;DHT22;19501;50.948;5.316;2022-12-29T06:57:24;11.20;99.90
33139;DHT22;19501;50.948;5.316;2022-12-29T06:59:51;11.20;99.90
33139;DHT22;19501;50.948;5.316;2022-12-29T07:02:17;11.20;99.90
33139;DHT22;19501;50.948;5.316;2022-12-29T07:04:46;11.20;99.90
33139;DHT22;19501;50.948;5.316;2022-12-29T07:07:11;11.30;99.90
33139;DHT22;19501;50.948;5.316;2022-12-29T07:09:37;11.40;99.90
33139;DHT22;19501;50.948;5.316;2022-12-29T07:12:02;11.40;99.90
33139;DHT22;19501;50.948;5.316;2022-12-29T07:14:28;11.30;99.90
33139;DHT22;19501;50.948;5.316;2022-12-29T07:16:53;11.30;99.90
33139;DHT22;19501;50.948;5.316;2022-12-29T07:19:19;11.40;99.90
33139;DHT22;19501;50.948;5.316;2022-12-29T07:21:45;11.20;99.90
33139;DHT22;19501;50.948;5.316;2022-12-29T07:24:11;11.10;99.90
33139;DHT22;19501;50.948;5.316;2022-12-29T07:26:36;11.10;99.90
33139;DHT22;19501;50.948;5.316;2022-12-29T07:29:03;11.20;99.90
33139;DHT22;19501;50.948;5.316;2022-12-29T07:31:28;11.20;99.90
33139;DHT22;19501;50.948;5.316;2022-12-29T07:33:54;11.00;99.90
33139;DHT22;19501;50.948;5.316;2022-12-29T07:36:20;10.90;99.90
33139;DHT22;19501;50.948;5.316;2022-12-29T07:38:45;10.90;99.90
33139;DHT22;19501;50.948;5.316;2022-12-29T07:41:11;10.90;99.90
33139;DHT22;19501;50.948;5.316;2022-12-29T07:43:37;10.80;99.90
33139;DHT22;19501;50.948;5.316;2022-12-29T07:46:05;10.80;99.90
33139;DHT22;19501;50.948;5.316;2022-12-29T07:48:31;10.70;99.90
33139;DHT22;19501;50.948;5.316;2022-12-29T07:50:58;10.80;99.90
33139;DHT22;19501;50.948;5.316;2022-12-29T07:53:24;10.80;99.90
33139;DHT22;19501;50.948;5.316;2022-12-29T07:55:49;10.90;99.90
33139;DHT22;19501;50.948;5.316;2022-12-29T07:58:15;10.90;99.90
33139;DHT22;19501;50.948;5.316;2022-12-29T08:00:41;10.80;99.90
33139;DHT22;19501;50.948;5.316;2022-12-29T08:03:06;10.90;99.90
33139;DHT22;19501;50.948;5.316;2022-12-29T08:05:32;10.80;99.90
33139;DHT22;19501;50.948;5.316;2022-12-29T08:07:59;10.90;99.90
33139;DHT22;19501;50.948;5.316;2022-12-29T08:10:25;10.90;99.90
33139;DHT22;19501;50.948;5.316;2022-12-29T08:12:50;10.90;99.90
33139;DHT22;19501;50.948;5.316;2022-12-29T08:15:16;10.90;99.90
33139;DHT22;19501;50.948;5.316;2022-12-29T08:17:41;10.90;99.90
33139;DHT22;19501;50.948;5.316;2022-12-29T08:20:08;10.90;99.90
33139;DHT22;19501;50.948;5.316;2022-12-29T08:22:34;10.90;99.90
33139;DHT22;19501;50.948;5.316;2022-12-29T08:25:00;10.90;99.90
33139;DHT22;19501;50.948;5.316;2022-12-29T08:27:25;11.10;99.90
33139;DHT22;19501;50.948;5.316;2022-12-29T08:29:53;11.00;99.90
33139;DHT22;19501;50.948;5.316;2022-12-29T08:32:19;11.10;99.90
33139;DHT22;19501;50.948;5.316;2022-12-29T08:34:47;11.10;99.90
33139;DHT22;19501;50.948;5.316;2022-12-29T08:37:12;11.10;99.90
33139;DHT22;19501;50.948;5.316;2022-12-29T08:39:38;11.20;99.90
33139;DHT22;19501;50.948;5.316;2022-12-29T08:42:03;11.20;99.90
33139;DHT22;19501;50.948;5.316;2022-12-29T08:44:29;11.20;99.90
33139;DHT22;19501;50.948;5.316;2022-12-29T08:46:55;11.10;99.90
33139;DHT22;19501;50.948;5.316;2022-12-29T08:49:21;11.10;99.90
33139;DHT22;19501;50.948;5.316;2022-12-29T08:51:46;11.10;99.90
33139;DHT22;19501;50.948;5.316;2022-12-29T08:54:12;11.20;99.90
33139;DHT22;19501;50.948;5.316;2022-12-29T08:56:39;11.10;99.90
33139;DHT22;19501;50.948;5.316;2022-12-29T08:59:05;11.10;99.90
33139;DHT22;19501;50.948;5.316;2022-12-29T09:01:30;11.00;99.90
33139;DHT22;19501;50.948;5.316;2022-12-29T09:03:56;11.00;99.90
33139;DHT22;19501;50.948;5.316;2022-12-29T09:06:22;11.00;99.90
33139;DHT22;19501;50.948;5.316;2022-12-29T09:08:48;11.00;99.90
33139;DHT22;19501;50.948;5.316;2022-12-29T09:11:15;11.00;99.90
33139;DHT22;19501;50.948;5.316;2022-12-29T09:13:41;11.00;99.90
33139;DHT22;19501;50.948;5.316;2022-12-29T09:16:06;11.00;99.90
33139;DHT22;19501;50.948;5.316;2022-12-29T09:18:32;11.00;99.90
33139;DHT22;19501;50.948;5.316;2022-12-29T09:20:59;10.90;99.90
33139;DHT22;19501;50.948;5.316;2022-12-29T09:23:25;10.90;99.90
33139;DHT22;19501;50.948;5.316;2022-12-29T09:25:52;11.00;99.90
33139;DHT22;19501;50.948;5.316;2022-12-29T09:28:18;10.90;99.90
33139;DHT22;19501;50.948;5.316;2022-12-29T09:30:44;11.00;99.90
33139;DHT22;19501;50.948;5.316;2022-12-29T09:33:10;11.00;99.90
33139;DHT22;19501;50.948;5.316;2022-12-29T09:35:35;10.90;99.90
33139;DHT22;19501;50.948;5.316;2022-12-29T09:38:01;11.00;99.90
33139;DHT22;19501;50.948;5.316;2022-12-29T09:40:27;11.10;99.90
33139;DHT22;19501;50.948;5.316;2022-12-29T09:45:43;11.20;99.90
33139;DHT22;19501;50.948;5.316;2022-12-29T09:48:13;11.10;99.90
33139;DHT22;19501;50.948;5.316;2022-12-29T09:50:41;11.20;99.90
33139;DHT22;19501;50.948;5.316;2022-12-29T09:53:11;11.20;99.90
33139;DHT22;19501;50.948;5.316;2022-12-29T09:55:50;11.30;99.90
33139;DHT22;19501;50.948;5.316;2022-12-29T09:58:19;11.20;99.90
33139;DHT22;19501;50.948;5.316;2022-12-29T10:03:14;11.10;99.90
33139;DHT22;19501;50.948;5.316;2022-12-29T10:05:55;11.20;99.90
33139;DHT22;19501;50.948;5.316;2022-12-29T10:14:15;11.20;99.90
33139;DHT22;19501;50.948;5.316;2022-12-29T10:16:24;11.30;99.90
33139;DHT22;19501;50.948;5.316;2022-12-29T10:24:10;11.10;99.90
33139;DHT22;19501;50.948;5.316;2022-12-29T10:26:40;11.20;99.90
33139;DHT22;19501;50.948;5.316;2022-12-29T10:29:13;11.10;99.90
33139;DHT22;19501;50.948;5.316;2022-12-29T10:31:59;11.20;99.90
33139;DHT22;19501;50.948;5.316;2022-12-29T10:34:38;11.30;99.90
33139;DHT22;19501;50.948;5.316;2022-12-29T10:39:54;11.30;99.90
33139;DHT22;19501;50.948;5.316;2022-12-29T10:42:20;11.40;99.90
33139;DHT22;19501;50.948;5.316;2022-12-29T10:44:49;11.40;99.90
33139;DHT22;19501;50.948;5.316;2022-12-29T10:47:16;11.50;99.90
33139;DHT22;19501;50.948;5.316;2022-12-29T10:49:44;11.60;99.90
33139;DHT22;19501;50.948;5.316;2022-12-29T10:52:10;11.60;99.90
33139;DHT22;19501;50.948;5.316;2022-12-29T10:54:39;11.50;99.90
33139;DHT22;19501;50.948;5.316;2022-12-29T10:57:11;11.40;99.90
33139;DHT22;19501;50.948;5.316;2022-12-29T10:59:41;11.50;99.90
33139;DHT22;19501;50.948;5.316;2022-12-29T11:04:38;11.70;99.90
33139;DHT22;19501;50.948;5.316;2022-12-29T11:07:07;11.90;99.90
33139;DHT22;19501;50.948;5.316;2022-12-29T11:09:34;11.80;99.90
33139;DHT22;19501;50.948;5.316;2022-12-29T11:12:35;11.80;99.90
33139;DHT22;19501;50.948;5.316;2022-12-29T11:17:29;11.80;99.90
33139;DHT22;19501;50.948;5.316;2022-12-29T11:19:55;11.70;99.90
33139;DHT22;19501;50.948;5.316;2022-12-29T11:22:21;11.70;99.90
33139;DHT22;19501;50.948;5.316;2022-12-29T11:24:48;11.70;99.90
33139;DHT22;19501;50.948;5.316;2022-12-29T11:27:16;11.60;99.90
33139;DHT22;19501;50.948;5.316;2022-12-29T11:29:42;11.60;99.90
33139;DHT22;19501;50.948;5.316;2022-12-29T11:32:25;11.60;99.90
33139;DHT22;19501;50.948;5.316;2022-12-29T11:34:52;11.70;99.90
33139;DHT22;19501;50.948;5.316;2022-12-29T11:45:09;11.60;99.90
33139;DHT22;19501;50.948;5.316;2022-12-29T11:47:41;11.60;99.90
33139;DHT22;19501;50.948;5.316;2022-12-29T11:50:07;11.50;99.90
33139;DHT22;19501;50.948;5.316;2022-12-29T11:52:35;11.50;99.90
33139;DHT22;19501;50.948;5.316;2022-12-29T11:55:05;11.60;99.90
33139;DHT22;19501;50.948;5.316;2022-12-29T11:57:32;11.70;99.90
33139;DHT22;19501;50.948;5.316;2022-12-29T11:59:59;11.60;99.90
33139;DHT22;19501;50.948;5.316;2022-12-29T12:04:56;11.60;99.90
33139;DHT22;19501;50.948;5.316;2022-12-29T12:07:33;11.60;99.90
33139;DHT22;19501;50.948;5.316;2022-12-29T12:10:03;11.60;99.90
33139;DHT22;19501;50.948;5.316;2022-12-29T12:12:39;11.70;99.90
33139;DHT22;19501;50.948;5.316;2022-12-29T12:15:08;11.70;99.90
33139;DHT22;19501;50.948;5.316;2022-12-29T12:20:09;11.90;99.90
33139;DHT22;19501;50.948;5.316;2022-12-29T12:22:44;11.90;99.90
33139;DHT22;19501;50.948;5.316;2022-12-29T12:25:11;12.00;99.90
33139;DHT22;19501;50.948;5.316;2022-12-29T12:27:48;12.20;99.90
33139;DHT22;19501;50.948;5.316;2022-12-29T12:30:17;12.10;99.90
33139;DHT22;19501;50.948;5.316;2022-12-29T12:45:27;11.80;99.90
33139;DHT22;19501;50.948;5.316;2022-12-29T12:53:14;11.80;99.90
33139;DHT22;19501;50.948;5.316;2022-12-29T12:55:57;11.80;99.90
33139;DHT22;19501;50.948;5.316;2022-12-29T12:58:28;11.70;99.90
33139;DHT22;19501;50.948;5.316;2022-12-29T13:03:39;11.60;99.90
33139;DHT22;19501;50.948;5.316;2022-12-29T13:06:20;11.50;99.90
33139;DHT22;19501;50.948;5.316;2022-12-29T13:11:36;11.60;99.90
33139;DHT22;19501;50.948;5.316;2022-12-29T13:19:48;11.50;99.90
33139;DHT22;19501;50.948;5.316;2022-12-29T13:32:34;11.60;99.90
33139;DHT22;19501;50.948;5.316;2022-12-29T13:38:30;11.50;99.90
33139;DHT22;19501;50.948;5.316;2022-12-29T13:40:36;11.50;99.90
33139;DHT22;19501;50.948;5.316;2022-12-29T13:43:04;11.60;99.90
33139;DHT22;19501;50.948;5.316;2022-12-29T13:45:31;11.40;99.90
33139;DHT22;19501;50.948;5.316;2022-12-29T13:48:00;11.40;99.90
33139;DHT22;19501;50.948;5.316;2022-12-29T13:50:26;11.40;99.90
33139;DHT22;19501;50.948;5.316;2022-12-29T14:01:14;11.20;99.90
33139;DHT22;19501;50.948;5.316;2022-12-29T14:06:03;11.30;99.90
33139;DHT22;19501;50.948;5.316;2022-12-29T14:08:29;11.30;99.90
33139;DHT22;19501;50.948;5.316;2022-12-29T14:10:59;11.10;99.90
33139;DHT22;19501;50.948;5.316;2022-12-29T14:13:30;10.80;99.90
33139;DHT22;19501;50.948;5.316;2022-12-29T14:15:58;10.30;99.90
33139;DHT22;19501;50.948;5.316;2022-12-29T14:18:25;10.00;99.90
33139;DHT22;19501;50.948;5.316;2022-12-29T14:21:03;10.00;99.90
33139;DHT22;19501;50.948;5.316;2022-12-29T14:23:43;9.90;99.90
33139;DHT22;19501;50.948;5.316;2022-12-29T14:28:38;9.90;99.90
33139;DHT22;19501;50.948;5.316;2022-12-29T14:34:14;9.90;99.90
33139;DHT22;19501;50.948;5.316;2022-12-29T14:36:42;9.90;99.90
33139;DHT22;19501;50.948;5.316;2022-12-29T14:42:26;9.60;99.90
33139;DHT22;19501;50.948;5.316;2022-12-29T14:44:51;9.40;99.90
33139;DHT22;19501;50.948;5.316;2022-12-29T14:47:31;9.20;99.90
33139;DHT22;19501;50.948;5.316;2022-12-29T14:50:05;9.10;99.90
33139;DHT22;19501;50.948;5.316;2022-12-29T14:52:32;9.00;99.90
33139;DHT22;19501;50.948;5.316;2022-12-29T14:57:40;9.00;99.90
33139;DHT22;19501;50.948;5.316;2022-12-29T15:00:21;9.10;99.90
33139;DHT22;19501;50.948;5.316;2022-12-29T15:02:53;9.10;99.90
33139;DHT22;19501;50.948;5.316;2022-12-29T15:05:28;9.10;99.90
33139;DHT22;19501;50.948;5.316;2022-12-29T15:07:55;9.20;99.90
33139;DHT22;19501;50.948;5.316;2022-12-29T15:10:22;9.30;99.90
33139;DHT22;19501;50.948;5.316;2022-12-29T15:12:50;9.30;99.90
33139;DHT22;19501;50.948;5.316;2022-12-29T15:15:18;9.30;99.90
33139;DHT22;19501;50.948;5.316;2022-12-29T15:17:45;9.40;99.90
33139;DHT22;19501;50.948;5.316;2022-12-29T15:20:25;9.40;99.90
33139;DHT22;19501;50.948;5.316;2022-12-29T15:22:57;9.40;99.90
33139;DHT22;19501;50.948;5.316;2022-12-29T15:25:23;9.50;99.90
33139;DHT22;19501;50.948;5.316;2022-12-29T15:27:54;9.50;99.90
33139;DHT22;19501;50.948;5.316;2022-12-29T15:30:21;9.60;99.90
33139;DHT22;19501;50.948;5.316;2022-12-29T15:32:47;9.70;99.90
33139;DHT22;19501;50.948;5.316;2022-12-29T15:35:28;9.80;99.90
33139;DHT22;19501;50.948;5.316;2022-12-29T15:37:54;9.70;99.90
33139;DHT22;19501;50.948;5.316;2022-12-29T15:40:27;9.50;99.90
33139;DHT22;19501;50.948;5.316;2022-12-29T15:45:32;9.40;99.90
33139;DHT22;19501;50.948;5.316;2022-12-29T15:47:59;9.40;99.90
33139;DHT22;19501;50.948;5.316;2022-12-29T15:50:28;9.40;99.90
33139;DHT22;19501;50.948;5.316;2022-12-29T15:52:55;9.30;99.90
33139;DHT22;19501;50.948;5.316;2022-12-29T15:57:46;9.40;99.90
33139;DHT22;19501;50.948;5.316;2022-12-29T16:00:22;9.40;99.90
33139;DHT22;19501;50.948;5.316;2022-12-29T16:02:50;9.50;99.90
33139;DHT22;19501;50.948;5.316;2022-12-29T16:05:17;9.40;99.90
33139;DHT22;19501;50.948;5.316;2022-12-29T16:07:55;9.50;99.90
33139;DHT22;19501;50.948;5.316;2022-12-29T16:10:25;9.50;99.90
33139;DHT22;19501;50.948;5.316;2022-12-29T16:12:52;9.50;99.90
33139;DHT22;19501;50.948;5.316;2022-12-29T16:15:18;9.40;99.90
33139;DHT22;19501;50.948;5.316;2022-12-29T16:17:50;9.20;99.90
33139;DHT22;19501;50.948;5.316;2022-12-29T16:20:19;9.20;99.90
33139;DHT22;19501;50.948;5.316;2022-12-29T16:22:53;9.20;99.90
33139;DHT22;19501;50.948;5.316;2022-12-29T16:25:24;9.30;99.90
33139;DHT22;19501;50.948;5.316;2022-12-29T16:27:50;9.10;99.90
33139;DHT22;19501;50.948;5.316;2022-12-29T16:30:19;9.00;99.90
33139;DHT22;19501;50.948;5.316;2022-12-29T16:32:46;8.90;99.90
33139;DHT22;19501;50.948;5.316;2022-12-29T16:37:39;8.90;99.90
33139;DHT22;19501;50.948;5.316;2022-12-29T16:50:30;8.70;99.90
33139;DHT22;19501;50.948;5.316;2022-12-29T16:52:55;8.70;99.90
33139;DHT22;19501;50.948;5.316;2022-12-29T16:55:21;8.60;99.90
33139;DHT22;19501;50.948;5.316;2022-12-29T16:57:47;8.60;99.90
33139;DHT22;19501;50.948;5.316;2022-12-29T17:00:19;8.70;99.90
33139;DHT22;19501;50.948;5.316;2022-12-29T17:02:46;8.60;99.90
33139;DHT22;19501;50.948;5.316;2022-12-29T17:05:12;8.60;99.90
33139;DHT22;19501;50.948;5.316;2022-12-29T17:07:39;8.60;99.90
33139;DHT22;19501;50.948;5.316;2022-12-29T17:10:04;8.50;99.90
33139;DHT22;19501;50.948;5.316;2022-12-29T17:12:30;8.50;99.90
33139;DHT22;19501;50.948;5.316;2022-12-29T17:14:59;8.50;99.90
33139;DHT22;19501;50.948;5.316;2022-12-29T17:19:55;8.50;99.90
33139;DHT22;19501;50.948;5.316;2022-12-29T17:22:24;8.50;99.90
33139;DHT22;19501;50.948;5.316;2022-12-29T17:24:51;8.50;99.90
33139;DHT22;19501;50.948;5.316;2022-12-29T17:27:22;8.60;99.90
33139;DHT22;19501;50.948;5.316;2022-12-29T17:29:48;8.60;99.90
33139;DHT22;19501;50.948;5.316;2022-12-29T17:32:14;8.60;99.90
33139;DHT22;19501;50.948;5.316;2022-12-29T17:34:40;8.50;99.90
33139;DHT22;19501;50.948;5.316;2022-12-29T17:39:50;8.50;99.90
33139;DHT22;19501;50.948;5.316;2022-12-29T17:42:16;8.50;99.90
33139;DHT22;19501;50.948;5.316;2022-12-29T17:44:42;8.60;99.90
33139;DHT22;19501;50.948;5.316;2022-12-29T17:47:09;8.50;99.90
33139;DHT22;19501;50.948;5.316;2022-12-29T17:49:35;8.60;99.90
33139;DHT22;19501;50.948;5.316;2022-12-29T17:52:01;8.60;99.90
33139;DHT22;19501;50.948;5.316;2022-12-29T17:54:27;8.50;99.90
33139;DHT22;19501;50.948;5.316;2022-12-29T17:56:53;8.40;99.90
33139;DHT22;19501;50.948;5.316;2022-12-29T17:59:19;8.40;99.90
33139;DHT22;19501;50.948;5.316;2022-12-29T18:01:46;8.50;99.90
33139;DHT22;19501;50.948;5.316;2022-12-29T18:04:14;8.50;99.90
33139;DHT22;19501;50.948;5.316;2022-12-29T18:06:40;8.50;99.90
33139;DHT22;19501;50.948;5.316;2022-12-29T18:09:06;8.40;99.90
33139;DHT22;19501;50.948;5.316;2022-12-29T18:11:33;8.40;99.90
33139;DHT22;19501;50.948;5.316;2022-12-29T18:14:00;8.30;99.90
33139;DHT22;19501;50.948;5.316;2022-12-29T18:16:26;8.30;99.90
33139;DHT22;19501;50.948;5.316;2022-12-29T18:18:51;8.20;99.90
33139;DHT22;19501;50.948;5.316;2022-12-29T18:21:18;8.20;99.90